sensor_id;sensor_type;location;lat;lon;timestamp;P1;durP1;ratioP1;P2;durP2;ratioP2
75417;SDS011;63997;52.112;5.420;2023-11-18T00:01:41;39.43;;;12.53;;
75417;SDS011;63997;52.112;5.420;2023-11-18T00:04:07;44.78;;;11.43;;
75417;SDS011;63997;52.112;5.420;2023-11-18T00:06:42;49.35;;;12.18;;
75417;SDS011;63997;52.112;5.420;2023-11-18T00:09:12;34.50;;;11.85;;
75417;SDS011;63997;52.112;5.420;2023-11-18T00:11:41;53.35;;;11.65;;
75417;SDS011;63997;52.112;5.420;2023-11-18T00:14:09;30.00;;;11.20;;
75417;SDS011;63997;52.112;5.420;2023-11-18T00:16:37;32.42;;;12.23;;
75417;SDS011;63997;52.112;5.420;2023-11-18T00:19:04;48.15;;;13.68;;
75417;SDS011;63997;52.112;5.420;2023-11-18T00:21:31;28.70;;;11.75;;
75417;SDS011;63997;52.112;5.420;2023-11-18T00:23:58;50.80;;;12.60;;
75417;SDS011;63997;52.112;5.420;2023-11-18T00:26:24;22.43;;;12.13;;
75417;SDS011;63997;52.112;5.420;2023-11-18T00:28:52;33.60;;;13.48;;
75417;SDS011;63997;52.112;5.420;2023-11-18T00:31:18;23.40;;;11.60;;
75417;SDS011;63997;52.112;5.420;2023-11-18T00:33:45;22.90;;;11.73;;
75417;SDS011;63997;52.112;5.420;2023-11-18T00:36:11;24.33;;;11.90;;
75417;SDS011;63997;52.112;5.420;2023-11-18T00:38:38;51.67;;;12.57;;
75417;SDS011;63997;52.112;5.420;2023-11-18T00:41:06;46.33;;;12.30;;
75417;SDS011;63997;52.112;5.420;2023-11-18T00:43:33;25.92;;;12.05;;
75417;SDS011;63997;52.112;5.420;2023-11-18T00:45:59;38.97;;;12.23;;
75417;SDS011;63997;52.112;5.420;2023-11-18T00:48:25;24.60;;;11.52;;
75417;SDS011;63997;52.112;5.420;2023-11-18T00:50:52;22.77;;;11.13;;
75417;SDS011;63997;52.112;5.420;2023-11-18T00:53:18;21.73;;;11.70;;
75417;SDS011;63997;52.112;5.420;2023-11-18T00:55:45;23.33;;;11.68;;
75417;SDS011;63997;52.112;5.420;2023-11-18T00:58:11;27.63;;;10.73;;
75417;SDS011;63997;52.112;5.420;2023-11-18T01:00:38;73.57;;;12.18;;
75417;SDS011;63997;52.112;5.420;2023-11-18T01:03:04;73.03;;;11.53;;
75417;SDS011;63997;52.112;5.420;2023-11-18T01:05:31;27.25;;;10.43;;
75417;SDS011;63997;52.112;5.420;2023-11-18T01:07:57;47.55;;;9.70;;
75417;SDS011;63997;52.112;5.420;2023-11-18T01:10:24;30.63;;;10.88;;
75417;SDS011;63997;52.112;5.420;2023-11-18T01:12:50;27.95;;;11.63;;
75417;SDS011;63997;52.112;5.420;2023-11-18T01:15:17;34.60;;;11.70;;
75417;SDS011;63997;52.112;5.420;2023-11-18T01:17:43;27.35;;;10.70;;
75417;SDS011;63997;52.112;5.420;2023-11-18T01:20:10;30.38;;;12.60;;
75417;SDS011;63997;52.112;5.420;2023-11-18T01:22:37;31.63;;;14.00;;
75417;SDS011;63997;52.112;5.420;2023-11-18T01:25:05;23.45;;;12.93;;
75417;SDS011;63997;52.112;5.420;2023-11-18T01:27:32;30.60;;;13.20;;
75417;SDS011;63997;52.112;5.420;2023-11-18T01:30:00;27.10;;;13.30;;
75417;SDS011;63997;52.112;5.420;2023-11-18T01:32:27;29.67;;;13.73;;
75417;SDS011;63997;52.112;5.420;2023-11-18T01:34:56;37.05;;;14.68;;
75417;SDS011;63997;52.112;5.420;2023-11-18T01:37:23;30.55;;;14.82;;
75417;SDS011;63997;52.112;5.420;2023-11-18T01:39:50;26.50;;;14.27;;
75417;SDS011;63997;52.112;5.420;2023-11-18T01:42:17;34.00;;;14.75;;
75417;SDS011;63997;52.112;5.420;2023-11-18T01:44:43;27.75;;;14.55;;
75417;SDS011;63997;52.112;5.420;2023-11-18T01:47:10;31.00;;;14.10;;
75417;SDS011;63997;52.112;5.420;2023-11-18T01:49:38;28.35;;;14.27;;
75417;SDS011;63997;52.112;5.420;2023-11-18T01:52:07;24.23;;;12.73;;
75417;SDS011;63997;52.112;5.420;2023-11-18T01:54:34;29.00;;;13.45;;
75417;SDS011;63997;52.112;5.420;2023-11-18T01:57:04;23.52;;;12.82;;
75417;SDS011;63997;52.112;5.420;2023-11-18T01:59:32;26.30;;;12.90;;
75417;SDS011;63997;52.112;5.420;2023-11-18T02:01:59;24.88;;;13.10;;
75417;SDS011;63997;52.112;5.420;2023-11-18T02:04:28;25.10;;;13.00;;
75417;SDS011;63997;52.112;5.420;2023-11-18T02:06:56;31.33;;;13.45;;
75417;SDS011;63997;52.112;5.420;2023-11-18T02:09:23;27.52;;;12.38;;
75417;SDS011;63997;52.112;5.420;2023-11-18T02:12:13;26.77;;;13.13;;
75417;SDS011;63997;52.112;5.420;2023-11-18T02:14:48;28.42;;;13.40;;
75417;SDS011;63997;52.112;5.420;2023-11-18T02:17:18;25.23;;;12.83;;
75417;SDS011;63997;52.112;5.420;2023-11-18T02:19:53;23.27;;;11.18;;
75417;SDS011;63997;52.112;5.420;2023-11-18T02:22:23;22.45;;;11.48;;
75417;SDS011;63997;52.112;5.420;2023-11-18T02:24:51;28.25;;;12.88;;
75417;SDS011;63997;52.112;5.420;2023-11-18T02:27:19;29.95;;;14.73;;
75417;SDS011;63997;52.112;5.420;2023-11-18T02:29:48;26.37;;;14.00;;
75417;SDS011;63997;52.112;5.420;2023-11-18T02:32:29;30.33;;;14.48;;
75417;SDS011;63997;52.112;5.420;2023-11-18T02:37:39;26.38;;;13.57;;
75417;SDS011;63997;52.112;5.420;2023-11-18T02:40:10;27.70;;;12.77;;
75417;SDS011;63997;52.112;5.420;2023-11-18T02:42:41;33.13;;;13.70;;
75417;SDS011;63997;52.112;5.420;2023-11-18T02:45:11;32.05;;;14.75;;
75417;SDS011;63997;52.112;5.420;2023-11-18T02:47:46;30.08;;;15.23;;
75417;SDS011;63997;52.112;5.420;2023-11-18T02:50:12;32.78;;;15.35;;
75417;SDS011;63997;52.112;5.420;2023-11-18T02:52:40;29.02;;;15.48;;
75417;SDS011;63997;52.112;5.420;2023-11-18T02:55:06;33.63;;;16.50;;
75417;SDS011;63997;52.112;5.420;2023-11-18T02:57:35;33.13;;;16.10;;
75417;SDS011;63997;52.112;5.420;2023-11-18T03:00:03;33.85;;;15.10;;
75417;SDS011;63997;52.112;5.420;2023-11-18T03:02:30;31.63;;;15.48;;
75417;SDS011;63997;52.112;5.420;2023-11-18T03:04:57;37.83;;;16.00;;
75417;SDS011;63997;52.112;5.420;2023-11-18T03:07:24;34.40;;;16.20;;
75417;SDS011;63997;52.112;5.420;2023-11-18T03:09:53;36.28;;;16.67;;
75417;SDS011;63997;52.112;5.420;2023-11-18T03:12:23;32.50;;;15.63;;
75417;SDS011;63997;52.112;5.420;2023-11-18T03:14:53;32.35;;;15.40;;
75417;SDS011;63997;52.112;5.420;2023-11-18T03:17:20;34.13;;;15.50;;
75417;SDS011;63997;52.112;5.420;2023-11-18T03:19:47;29.10;;;14.37;;
75417;SDS011;63997;52.112;5.420;2023-11-18T03:22:13;30.80;;;15.85;;
75417;SDS011;63997;52.112;5.420;2023-11-18T03:24:39;32.03;;;15.95;;
75417;SDS011;63997;52.112;5.420;2023-11-18T03:27:06;38.47;;;16.42;;
75417;SDS011;63997;52.112;5.420;2023-11-18T03:29:34;32.78;;;16.00;;
75417;SDS011;63997;52.112;5.420;2023-11-18T03:32:02;31.67;;;14.87;;
75417;SDS011;63997;52.112;5.420;2023-11-18T03:34:29;28.10;;;14.32;;
75417;SDS011;63997;52.112;5.420;2023-11-18T03:36:56;31.50;;;14.77;;
75417;SDS011;63997;52.112;5.420;2023-11-18T03:39:23;32.38;;;16.00;;
75417;SDS011;63997;52.112;5.420;2023-11-18T03:41:49;30.45;;;15.60;;
75417;SDS011;63997;52.112;5.420;2023-11-18T03:44:16;31.90;;;16.30;;
75417;SDS011;63997;52.112;5.420;2023-11-18T03:46:43;33.97;;;16.23;;
75417;SDS011;63997;52.112;5.420;2023-11-18T03:49:09;36.10;;;15.35;;
75417;SDS011;63997;52.112;5.420;2023-11-18T03:51:36;31.05;;;15.40;;
75417;SDS011;63997;52.112;5.420;2023-11-18T03:54:02;30.50;;;15.35;;
75417;SDS011;63997;52.112;5.420;2023-11-18T03:56:29;30.10;;;14.33;;
75417;SDS011;63997;52.112;5.420;2023-11-18T03:58:56;31.02;;;15.05;;
75417;SDS011;63997;52.112;5.420;2023-11-18T04:01:23;28.60;;;15.18;;
75417;SDS011;63997;52.112;5.420;2023-11-18T04:03:53;30.30;;;14.45;;
75417;SDS011;63997;52.112;5.420;2023-11-18T04:06:23;31.00;;;13.98;;
75417;SDS011;63997;52.112;5.420;2023-11-18T04:08:50;25.93;;;14.30;;
75417;SDS011;63997;52.112;5.420;2023-11-18T04:11:17;29.00;;;14.60;;
75417;SDS011;63997;52.112;5.420;2023-11-18T04:13:44;24.35;;;13.38;;
75417;SDS011;63997;52.112;5.420;2023-11-18T04:16:11;26.23;;;14.23;;
75417;SDS011;63997;52.112;5.420;2023-11-18T04:18:39;29.35;;;14.50;;
75417;SDS011;63997;52.112;5.420;2023-11-18T04:21:08;29.47;;;14.83;;
75417;SDS011;63997;52.112;5.420;2023-11-18T04:23:42;31.00;;;14.13;;
75417;SDS011;63997;52.112;5.420;2023-11-18T04:26:10;30.98;;;15.25;;
75417;SDS011;63997;52.112;5.420;2023-11-18T04:28:36;30.20;;;14.77;;
75417;SDS011;63997;52.112;5.420;2023-11-18T04:31:03;31.75;;;14.63;;
75417;SDS011;63997;52.112;5.420;2023-11-18T04:33:31;26.47;;;14.37;;
75417;SDS011;63997;52.112;5.420;2023-11-18T04:35:59;27.83;;;14.10;;
75417;SDS011;63997;52.112;5.420;2023-11-18T04:38:26;27.27;;;15.15;;
75417;SDS011;63997;52.112;5.420;2023-11-18T04:40:52;30.02;;;13.85;;
75417;SDS011;63997;52.112;5.420;2023-11-18T04:43:20;28.80;;;14.75;;
75417;SDS011;63997;52.112;5.420;2023-11-18T04:46:04;29.47;;;14.40;;
75417;SDS011;63997;52.112;5.420;2023-11-18T04:48:31;28.00;;;14.77;;
75417;SDS011;63997;52.112;5.420;2023-11-18T04:50:59;29.23;;;14.40;;
75417;SDS011;63997;52.112;5.420;2023-11-18T04:53:26;25.73;;;14.38;;
75417;SDS011;63997;52.112;5.420;2023-11-18T04:55:52;26.88;;;13.77;;
75417;SDS011;63997;52.112;5.420;2023-11-18T04:58:19;27.77;;;14.53;;
75417;SDS011;63997;52.112;5.420;2023-11-18T05:00:45;34.45;;;15.23;;
75417;SDS011;63997;52.112;5.420;2023-11-18T05:03:12;28.88;;;15.07;;
75417;SDS011;63997;52.112;5.420;2023-11-18T05:05:39;28.63;;;14.27;;
75417;SDS011;63997;52.112;5.420;2023-11-18T05:08:07;30.60;;;15.25;;
75417;SDS011;63997;52.112;5.420;2023-11-18T05:10:34;28.70;;;14.90;;
75417;SDS011;63997;52.112;5.420;2023-11-18T05:13:01;32.67;;;14.25;;
75417;SDS011;63997;52.112;5.420;2023-11-18T05:15:28;31.48;;;14.98;;
75417;SDS011;63997;52.112;5.420;2023-11-18T05:17:55;33.28;;;16.05;;
75417;SDS011;63997;52.112;5.420;2023-11-18T05:20:22;26.27;;;14.30;;
75417;SDS011;63997;52.112;5.420;2023-11-18T05:22:49;25.13;;;13.83;;
75417;SDS011;63997;52.112;5.420;2023-11-18T05:25:15;29.92;;;15.68;;
75417;SDS011;63997;52.112;5.420;2023-11-18T05:27:42;28.90;;;15.00;;
75417;SDS011;63997;52.112;5.420;2023-11-18T05:30:09;29.90;;;15.43;;
75417;SDS011;63997;52.112;5.420;2023-11-18T05:32:36;30.95;;;14.55;;
75417;SDS011;63997;52.112;5.420;2023-11-18T05:35:04;31.07;;;15.23;;
75417;SDS011;63997;52.112;5.420;2023-11-18T05:37:31;31.35;;;15.10;;
75417;SDS011;63997;52.112;5.420;2023-11-18T05:40:04;31.83;;;14.90;;
75417;SDS011;63997;52.112;5.420;2023-11-18T05:42:35;26.38;;;14.05;;
75417;SDS011;63997;52.112;5.420;2023-11-18T05:45:06;26.17;;;14.57;;
75417;SDS011;63997;52.112;5.420;2023-11-18T05:47:33;25.37;;;14.23;;
75417;SDS011;63997;52.112;5.420;2023-11-18T05:50:03;26.23;;;13.63;;
75417;SDS011;63997;52.112;5.420;2023-11-18T05:52:31;23.40;;;12.25;;
75417;SDS011;63997;52.112;5.420;2023-11-18T05:54:58;29.52;;;13.77;;
75417;SDS011;63997;52.112;5.420;2023-11-18T05:57:25;27.48;;;13.07;;
75417;SDS011;63997;52.112;5.420;2023-11-18T05:59:53;30.27;;;13.63;;
75417;SDS011;63997;52.112;5.420;2023-11-18T06:02:21;27.38;;;13.25;;
75417;SDS011;63997;52.112;5.420;2023-11-18T06:04:48;24.08;;;12.10;;
75417;SDS011;63997;52.112;5.420;2023-11-18T06:07:15;29.77;;;12.88;;
75417;SDS011;63997;52.112;5.420;2023-11-18T06:09:43;23.73;;;11.23;;
75417;SDS011;63997;52.112;5.420;2023-11-18T06:12:10;24.80;;;11.93;;
75417;SDS011;63997;52.112;5.420;2023-11-18T06:14:37;23.42;;;12.05;;
75417;SDS011;63997;52.112;5.420;2023-11-18T06:17:04;19.25;;;10.90;;
75417;SDS011;63997;52.112;5.420;2023-11-18T06:19:33;26.35;;;11.95;;
75417;SDS011;63997;52.112;5.420;2023-11-18T06:22:00;19.55;;;9.95;;
75417;SDS011;63997;52.112;5.420;2023-11-18T06:24:27;23.23;;;11.97;;
75417;SDS011;63997;52.112;5.420;2023-11-18T06:26:54;18.80;;;10.85;;
75417;SDS011;63997;52.112;5.420;2023-11-18T06:29:20;27.85;;;10.38;;
75417;SDS011;63997;52.112;5.420;2023-11-18T06:31:47;24.80;;;11.32;;
75417;SDS011;63997;52.112;5.420;2023-11-18T06:34:14;24.52;;;11.27;;
75417;SDS011;63997;52.112;5.420;2023-11-18T06:36:41;27.10;;;11.23;;
75417;SDS011;63997;52.112;5.420;2023-11-18T06:39:07;22.92;;;11.00;;
75417;SDS011;63997;52.112;5.420;2023-11-18T06:41:34;27.17;;;11.82;;
75417;SDS011;63997;52.112;5.420;2023-11-18T06:44:03;23.88;;;11.43;;
75417;SDS011;63997;52.112;5.420;2023-11-18T06:46:38;24.27;;;11.20;;
75417;SDS011;63997;52.112;5.420;2023-11-18T06:49:07;23.27;;;10.47;;
75417;SDS011;63997;52.112;5.420;2023-11-18T06:51:36;26.10;;;11.20;;
75417;SDS011;63997;52.112;5.420;2023-11-18T06:54:05;22.15;;;11.23;;
75417;SDS011;63997;52.112;5.420;2023-11-18T06:56:36;22.92;;;11.07;;
75417;SDS011;63997;52.112;5.420;2023-11-18T06:59:04;23.67;;;10.93;;
75417;SDS011;63997;52.112;5.420;2023-11-18T07:01:33;19.93;;;9.53;;
75417;SDS011;63997;52.112;5.420;2023-11-18T07:04:01;26.02;;;10.48;;
75417;SDS011;63997;52.112;5.420;2023-11-18T07:06:28;25.55;;;11.10;;
75417;SDS011;63997;52.112;5.420;2023-11-18T07:08:55;22.77;;;11.35;;
75417;SDS011;63997;52.112;5.420;2023-11-18T07:11:26;24.35;;;10.30;;
75417;SDS011;63997;52.112;5.420;2023-11-18T07:13:54;25.47;;;11.03;;
75417;SDS011;63997;52.112;5.420;2023-11-18T07:16:23;26.63;;;10.98;;
75417;SDS011;63997;52.112;5.420;2023-11-18T07:18:51;24.00;;;11.40;;
75417;SDS011;63997;52.112;5.420;2023-11-18T07:21:18;31.25;;;11.55;;
75417;SDS011;63997;52.112;5.420;2023-11-18T07:23:45;22.15;;;10.73;;
75417;SDS011;63997;52.112;5.420;2023-11-18T07:26:11;23.37;;;9.70;;
75417;SDS011;63997;52.112;5.420;2023-11-18T07:28:38;26.20;;;10.23;;
75417;SDS011;63997;52.112;5.420;2023-11-18T07:31:04;21.88;;;10.07;;
75417;SDS011;63997;52.112;5.420;2023-11-18T07:33:31;22.58;;;9.85;;
75417;SDS011;63997;52.112;5.420;2023-11-18T07:35:58;21.55;;;9.93;;
75417;SDS011;63997;52.112;5.420;2023-11-18T07:38:25;19.97;;;10.60;;
75417;SDS011;63997;52.112;5.420;2023-11-18T07:40:53;21.45;;;10.30;;
75417;SDS011;63997;52.112;5.420;2023-11-18T07:43:22;20.15;;;9.48;;
75417;SDS011;63997;52.112;5.420;2023-11-18T07:45:49;22.55;;;9.40;;
75417;SDS011;63997;52.112;5.420;2023-11-18T07:48:18;18.08;;;10.68;;
75417;SDS011;63997;52.112;5.420;2023-11-18T07:50:46;20.90;;;10.33;;
75417;SDS011;63997;52.112;5.420;2023-11-18T07:53:13;27.55;;;11.50;;
75417;SDS011;63997;52.112;5.420;2023-11-18T07:55:40;25.33;;;11.05;;
75417;SDS011;63997;52.112;5.420;2023-11-18T07:58:07;19.67;;;9.95;;
75417;SDS011;63997;52.112;5.420;2023-11-18T08:00:37;21.48;;;9.95;;
75417;SDS011;63997;52.112;5.420;2023-11-18T08:03:08;24.47;;;10.07;;
75417;SDS011;63997;52.112;5.420;2023-11-18T08:05:39;20.60;;;10.05;;
75417;SDS011;63997;52.112;5.420;2023-11-18T08:08:10;20.25;;;10.75;;
75417;SDS011;63997;52.112;5.420;2023-11-18T08:10:37;24.23;;;9.93;;
75417;SDS011;63997;52.112;5.420;2023-11-18T08:13:05;19.98;;;10.23;;
75417;SDS011;63997;52.112;5.420;2023-11-18T08:15:34;17.20;;;9.27;;
75417;SDS011;63997;52.112;5.420;2023-11-18T08:18:01;17.88;;;9.25;;
75417;SDS011;63997;52.112;5.420;2023-11-18T08:20:29;18.83;;;9.35;;
75417;SDS011;63997;52.112;5.420;2023-11-18T08:22:56;19.90;;;9.40;;
75417;SDS011;63997;52.112;5.420;2023-11-18T08:25:23;16.45;;;9.45;;
75417;SDS011;63997;52.112;5.420;2023-11-18T08:27:49;20.53;;;8.70;;
75417;SDS011;63997;52.112;5.420;2023-11-18T08:30:16;15.80;;;8.55;;
75417;SDS011;63997;52.112;5.420;2023-11-18T08:32:44;23.77;;;8.90;;
75417;SDS011;63997;52.112;5.420;2023-11-18T08:35:12;15.85;;;8.80;;
75417;SDS011;63997;52.112;5.420;2023-11-18T08:37:42;16.95;;;8.23;;
75417;SDS011;63997;52.112;5.420;2023-11-18T08:40:09;16.00;;;7.83;;
75417;SDS011;63997;52.112;5.420;2023-11-18T08:42:43;16.67;;;8.38;;
75417;SDS011;63997;52.112;5.420;2023-11-18T08:47:45;13.77;;;7.65;;
75417;SDS011;63997;52.112;5.420;2023-11-18T08:50:15;14.60;;;8.07;;
75417;SDS011;63997;52.112;5.420;2023-11-18T08:52:43;15.50;;;7.53;;
75417;SDS011;63997;52.112;5.420;2023-11-18T08:55:13;12.18;;;7.13;;
75417;SDS011;63997;52.112;5.420;2023-11-18T08:57:48;15.13;;;8.27;;
75417;SDS011;63997;52.112;5.420;2023-11-18T09:00:30;12.05;;;7.38;;
75417;SDS011;63997;52.112;5.420;2023-11-18T09:03:14;13.75;;;6.75;;
75417;SDS011;63997;52.112;5.420;2023-11-18T09:05:51;13.40;;;6.57;;
75417;SDS011;63997;52.112;5.420;2023-11-18T09:08:31;11.35;;;6.18;;
75417;SDS011;63997;52.112;5.420;2023-11-18T09:11:05;13.45;;;6.75;;
75417;SDS011;63997;52.112;5.420;2023-11-18T09:13:33;13.82;;;5.80;;
75417;SDS011;63997;52.112;5.420;2023-11-18T09:16:02;11.73;;;6.45;;
75417;SDS011;63997;52.112;5.420;2023-11-18T09:18:29;13.47;;;6.10;;
75417;SDS011;63997;52.112;5.420;2023-11-18T09:20:59;9.02;;;6.00;;
75417;SDS011;63997;52.112;5.420;2023-11-18T09:23:28;14.57;;;6.68;;
75417;SDS011;63997;52.112;5.420;2023-11-18T09:25:55;9.23;;;6.22;;
75417;SDS011;63997;52.112;5.420;2023-11-18T09:28:26;9.07;;;5.75;;
75417;SDS011;63997;52.112;5.420;2023-11-18T09:30:56;13.80;;;6.07;;
75417;SDS011;63997;52.112;5.420;2023-11-18T09:33:25;12.95;;;6.28;;
75417;SDS011;63997;52.112;5.420;2023-11-18T09:35:55;14.02;;;6.78;;
75417;SDS011;63997;52.112;5.420;2023-11-18T09:38:28;16.42;;;7.10;;
75417;SDS011;63997;52.112;5.420;2023-11-18T09:40:56;9.77;;;5.57;;
75417;SDS011;63997;52.112;5.420;2023-11-18T09:43:24;13.67;;;6.17;;
75417;SDS011;63997;52.112;5.420;2023-11-18T09:45:56;13.43;;;5.45;;
75417;SDS011;63997;52.112;5.420;2023-11-18T09:48:28;11.07;;;5.65;;
75417;SDS011;63997;52.112;5.420;2023-11-18T09:50:55;12.57;;;5.38;;
75417;SDS011;63997;52.112;5.420;2023-11-18T09:53:25;11.25;;;5.55;;
75417;SDS011;63997;52.112;5.420;2023-11-18T09:55:59;11.27;;;5.20;;
75417;SDS011;63997;52.112;5.420;2023-11-18T09:58:37;11.73;;;5.93;;
75417;SDS011;63997;52.112;5.420;2023-11-18T10:01:15;11.88;;;5.85;;
75417;SDS011;63997;52.112;5.420;2023-11-18T10:03:44;12.32;;;5.68;;
75417;SDS011;63997;52.112;5.420;2023-11-18T10:06:13;11.25;;;5.28;;
75417;SDS011;63997;52.112;5.420;2023-11-18T10:08:42;14.67;;;5.53;;
75417;SDS011;63997;52.112;5.420;2023-11-18T10:11:12;14.10;;;6.20;;
75417;SDS011;63997;52.112;5.420;2023-11-18T10:13:39;8.75;;;5.63;;
75417;SDS011;63997;52.112;5.420;2023-11-18T10:16:07;13.38;;;5.55;;
75417;SDS011;63997;52.112;5.420;2023-11-18T10:18:34;14.70;;;5.88;;
75417;SDS011;63997;52.112;5.420;2023-11-18T10:21:02;17.10;;;5.70;;
75417;SDS011;63997;52.112;5.420;2023-11-18T10:23:37;12.95;;;5.45;;
75417;SDS011;63997;52.112;5.420;2023-11-18T10:26:04;14.02;;;5.30;;
75417;SDS011;63997;52.112;5.420;2023-11-18T10:28:31;11.98;;;5.05;;
75417;SDS011;63997;52.112;5.420;2023-11-18T10:31:04;10.75;;;5.13;;
75417;SDS011;63997;52.112;5.420;2023-11-18T10:33:35;11.20;;;5.37;;
75417;SDS011;63997;52.112;5.420;2023-11-18T10:36:17;10.55;;;5.07;;
75417;SDS011;63997;52.112;5.420;2023-11-18T10:38:50;9.95;;;4.85;;
75417;SDS011;63997;52.112;5.420;2023-11-18T10:41:22;9.63;;;5.07;;
75417;SDS011;63997;52.112;5.420;2023-11-18T10:43:49;10.07;;;4.47;;
75417;SDS011;63997;52.112;5.420;2023-11-18T10:46:31;15.00;;;5.47;;
75417;SDS011;63997;52.112;5.420;2023-11-18T10:48:58;7.00;;;4.63;;
75417;SDS011;63997;52.112;5.420;2023-11-18T10:51:24;10.95;;;5.03;;
75417;SDS011;63997;52.112;5.420;2023-11-18T10:53:53;11.02;;;4.57;;
75417;SDS011;63997;52.112;5.420;2023-11-18T10:56:27;13.23;;;4.78;;
75417;SDS011;63997;52.112;5.420;2023-11-18T10:59:04;9.57;;;4.97;;
75417;SDS011;63997;52.112;5.420;2023-11-18T11:01:33;9.00;;;4.72;;
75417;SDS011;63997;52.112;5.420;2023-11-18T11:04:05;9.45;;;4.85;;
75417;SDS011;63997;52.112;5.420;2023-11-18T11:06:32;11.05;;;4.72;;
75417;SDS011;63997;52.112;5.420;2023-11-18T11:08:59;9.15;;;4.40;;
75417;SDS011;63997;52.112;5.420;2023-11-18T11:11:35;10.67;;;4.67;;
75417;SDS011;63997;52.112;5.420;2023-11-18T11:14:06;9.55;;;4.15;;
75417;SDS011;63997;52.112;5.420;2023-11-18T11:16:40;9.75;;;4.90;;
75417;SDS011;63997;52.112;5.420;2023-11-18T11:19:20;8.55;;;4.43;;
75417;SDS011;63997;52.112;5.420;2023-11-18T11:21:55;6.75;;;4.35;;
75417;SDS011;63997;52.112;5.420;2023-11-18T11:24:34;11.77;;;4.47;;
75417;SDS011;63997;52.112;5.420;2023-11-18T11:27:17;14.30;;;4.80;;
75417;SDS011;63997;52.112;5.420;2023-11-18T11:30:02;8.38;;;4.47;;
75417;SDS011;63997;52.112;5.420;2023-11-18T11:32:50;8.80;;;3.80;;
75417;SDS011;63997;52.112;5.420;2023-11-18T11:35:27;7.50;;;4.15;;
75417;SDS011;63997;52.112;5.420;2023-11-18T11:37:59;9.37;;;4.83;;
75417;SDS011;63997;52.112;5.420;2023-11-18T11:40:31;7.53;;;4.10;;
75417;SDS011;63997;52.112;5.420;2023-11-18T11:42:58;8.25;;;3.88;;
75417;SDS011;63997;52.112;5.420;2023-11-18T11:45:27;7.25;;;3.95;;
75417;SDS011;63997;52.112;5.420;2023-11-18T11:47:57;12.48;;;4.85;;
75417;SDS011;63997;52.112;5.420;2023-11-18T11:53:22;11.20;;;3.40;;
75417;SDS011;63997;52.112;5.420;2023-11-18T11:55:53;13.80;;;4.13;;
75417;SDS011;63997;52.112;5.420;2023-11-18T11:58:31;9.00;;;3.92;;
75417;SDS011;63997;52.112;5.420;2023-11-18T12:01:00;8.13;;;4.00;;
75417;SDS011;63997;52.112;5.420;2023-11-18T12:03:27;6.90;;;3.43;;
75417;SDS011;63997;52.112;5.420;2023-11-18T12:06:02;10.52;;;3.85;;
75417;SDS011;63997;52.112;5.420;2023-11-18T12:08:38;10.52;;;4.03;;
75417;SDS011;63997;52.112;5.420;2023-11-18T12:11:08;7.90;;;3.05;;
75417;SDS011;63997;52.112;5.420;2023-11-18T12:13:37;7.07;;;3.22;;
75417;SDS011;63997;52.112;5.420;2023-11-18T12:16:06;13.00;;;3.13;;
75417;SDS011;63997;52.112;5.420;2023-11-18T12:18:36;8.57;;;3.40;;
75417;SDS011;63997;52.112;5.420;2023-11-18T12:21:03;8.95;;;3.08;;
75417;SDS011;63997;52.112;5.420;2023-11-18T12:23:30;8.93;;;3.10;;
75417;SDS011;63997;52.112;5.420;2023-11-18T12:26:00;7.72;;;3.30;;
75417;SDS011;63997;52.112;5.420;2023-11-18T12:28:32;9.50;;;2.87;;
75417;SDS011;63997;52.112;5.420;2023-11-18T12:31:08;8.23;;;2.70;;
75417;SDS011;63997;52.112;5.420;2023-11-18T12:42:40;5.93;;;2.37;;
75417;SDS011;63997;52.112;5.420;2023-11-18T12:45:46;6.22;;;2.17;;
75417;SDS011;63997;52.112;5.420;2023-11-18T12:48:26;3.70;;;1.55;;
75417;SDS011;63997;52.112;5.420;2023-11-18T12:50:58;8.00;;;2.67;;
75417;SDS011;63997;52.112;5.420;2023-11-18T12:53:26;5.35;;;2.20;;
75417;SDS011;63997;52.112;5.420;2023-11-18T12:55:54;4.40;;;1.77;;
75417;SDS011;63997;52.112;5.420;2023-11-18T12:58:21;6.68;;;2.53;;
75417;SDS011;63997;52.112;5.420;2023-11-18T13:00:49;2.78;;;1.75;;
75417;SDS011;63997;52.112;5.420;2023-11-18T13:03:16;6.07;;;2.20;;
75417;SDS011;63997;52.112;5.420;2023-11-18T13:05:44;5.35;;;1.80;;
75417;SDS011;63997;52.112;5.420;2023-11-18T13:08:11;3.83;;;1.60;;
75417;SDS011;63997;52.112;5.420;2023-11-18T13:10:41;3.90;;;1.83;;
75417;SDS011;63997;52.112;5.420;2023-11-18T13:13:10;4.13;;;1.45;;
75417;SDS011;63997;52.112;5.420;2023-11-18T13:15:38;4.93;;;1.42;;
75417;SDS011;63997;52.112;5.420;2023-11-18T13:18:05;3.83;;;1.75;;
75417;SDS011;63997;52.112;5.420;2023-11-18T13:20:33;4.37;;;1.50;;
75417;SDS011;63997;52.112;5.420;2023-11-18T13:23:03;6.18;;;1.65;;
75417;SDS011;63997;52.112;5.420;2023-11-18T13:25:35;4.63;;;1.90;;
75417;SDS011;63997;52.112;5.420;2023-11-18T13:28:05;5.60;;;1.55;;
75417;SDS011;63997;52.112;5.420;2023-11-18T13:30:36;3.53;;;1.38;;
75417;SDS011;63997;52.112;5.420;2023-11-18T13:33:06;4.23;;;1.60;;
75417;SDS011;63997;52.112;5.420;2023-11-18T13:35:33;2.10;;;1.30;;
75417;SDS011;63997;52.112;5.420;2023-11-18T13:38:01;6.35;;;1.15;;
75417;SDS011;63997;52.112;5.420;2023-11-18T13:40:46;3.08;;;1.13;;
75417;SDS011;63997;52.112;5.420;2023-11-18T13:43:14;4.35;;;1.70;;
75417;SDS011;63997;52.112;5.420;2023-11-18T13:45:40;2.63;;;1.07;;
75417;SDS011;63997;52.112;5.420;2023-11-18T13:48:08;3.78;;;1.30;;
75417;SDS011;63997;52.112;5.420;2023-11-18T13:50:40;3.70;;;1.40;;
75417;SDS011;63997;52.112;5.420;2023-11-18T13:53:07;3.72;;;1.27;;
75417;SDS011;63997;52.112;5.420;2023-11-18T13:55:34;2.00;;;1.08;;
75417;SDS011;63997;52.112;5.420;2023-11-18T13:58:02;1.60;;;1.03;;
75417;SDS011;63997;52.112;5.420;2023-11-18T14:00:31;3.20;;;1.15;;
75417;SDS011;63997;52.112;5.420;2023-11-18T14:02:58;2.70;;;0.88;;
75417;SDS011;63997;52.112;5.420;2023-11-18T14:05:32;2.70;;;1.02;;
75417;SDS011;63997;52.112;5.420;2023-11-18T14:08:00;1.90;;;1.00;;
75417;SDS011;63997;52.112;5.420;2023-11-18T14:10:26;6.10;;;1.10;;
75417;SDS011;63997;52.112;5.420;2023-11-18T14:13:06;3.33;;;1.27;;
75417;SDS011;63997;52.112;5.420;2023-11-18T14:15:35;2.33;;;1.15;;
75417;SDS011;63997;52.112;5.420;2023-11-18T14:18:02;3.47;;;0.65;;
75417;SDS011;63997;52.112;5.420;2023-11-18T14:20:29;3.80;;;1.10;;
75417;SDS011;63997;52.112;5.420;2023-11-18T14:22:57;1.27;;;0.80;;
75417;SDS011;63997;52.112;5.420;2023-11-18T14:25:24;3.38;;;0.80;;
75417;SDS011;63997;52.112;5.420;2023-11-18T14:27:51;1.10;;;0.60;;
75417;SDS011;63997;52.112;5.420;2023-11-18T14:30:17;2.63;;;0.70;;
75417;SDS011;63997;52.112;5.420;2023-11-18T14:32:45;2.15;;;0.75;;
75417;SDS011;63997;52.112;5.420;2023-11-18T14:35:12;1.07;;;0.53;;
75417;SDS011;63997;52.112;5.420;2023-11-18T14:37:46;2.42;;;0.80;;
75417;SDS011;63997;52.112;5.420;2023-11-18T14:40:12;1.10;;;0.65;;
75417;SDS011;63997;52.112;5.420;2023-11-18T14:42:42;1.85;;;1.02;;
75417;SDS011;63997;52.112;5.420;2023-11-18T14:45:12;1.00;;;0.70;;
75417;SDS011;63997;52.112;5.420;2023-11-18T14:47:40;1.80;;;0.60;;
75417;SDS011;63997;52.112;5.420;2023-11-18T14:50:07;0.90;;;0.50;;
75417;SDS011;63997;52.112;5.420;2023-11-18T14:52:47;3.03;;;0.47;;
75417;SDS011;63997;52.112;5.420;2023-11-18T14:55:15;2.65;;;0.65;;
75417;SDS011;63997;52.112;5.420;2023-11-18T14:57:46;0.90;;;0.52;;
75417;SDS011;63997;52.112;5.420;2023-11-18T15:00:13;1.27;;;0.50;;